Time;durP1;ratioP1;P1;durP2;ratioP2;P2;SDS_P1;SDS_P2;PMS_P1;PMS_P2;Temp;Humidity;BMP_temperature;BMP_pressure;BME280_temperature;BME280_humidity;BME280_pressure;Samples;Min_cycle;Max_cycle;Signal;HPM_P1;HPM_P2
2022/08/04 00:00:24;;;;;;;5.50;3.67;;;24.90;73.40;;;;;;10420267;28;20271;-81
2022/08/04 00:05:40;;;;;;;4.10;3.90;;;24.90;74.30;;;;;;10430668;28;20212;-81
2022/08/04 00:10:48;;;;;;;4.00;3.80;;;24.80;73.90;;;;;;10411971;28;20225;-81
2022/08/04 00:15:53;;;;;;;4.20;4.00;;;24.80;74.20;;;;;;10440610;28;20182;-81
2022/08/04 00:20:59;;;;;;;4.10;3.90;;;24.70;74.60;;;;;;10446211;28;20244;-81
2022/08/04 00:26:05;;;;;;;4.23;3.93;;;24.70;74.70;;;;;;10450898;28;20221;-80
2022/08/04 00:31:09;;;;;;;4.00;3.70;;;24.60;75.50;;;;;;10432775;28;20204;-81
2022/08/04 00:36:12;;;;;;;3.77;3.63;;;24.60;75.30;;;;;;10455710;28;20243;-81
2022/08/04 00:41:31;;;;;;;4.70;4.40;;;24.50;75.50;;;;;;10428354;28;20705;-81
2022/08/04 00:46:48;;;;;;;3.83;3.67;;;24.40;75.80;;;;;;10460593;28;20244;-80
2022/08/04 00:52:01;;;;;;;4.20;3.90;;;24.40;75.40;;;;;;10445828;28;20228;-81
2022/08/04 00:57:21;;;;;;;4.20;4.00;;;24.30;76.00;;;;;;10444343;28;20656;-81
2022/08/04 01:02:31;;;;;;;4.43;4.23;;;24.30;76.70;;;;;;10441382;28;20220;-81
2022/08/04 01:08:11;;;;;;;4.00;3.80;;;24.30;75.90;;;;;;10446821;28;20221;-82
2022/08/04 01:13:35;;;;;;;3.97;3.70;;;24.30;75.70;;;;;;10439014;28;20225;-81
2022/08/04 01:18:51;;;;;;;3.97;3.80;;;24.30;75.80;;;;;;10444899;28;20644;-82
2022/08/04 01:24:18;;;;;;;3.90;3.70;;;24.20;75.40;;;;;;10428927;28;20302;-82
2022/08/04 01:29:23;;;;;;;4.13;3.73;;;24.20;75.80;;;;;;10457337;28;20231;-82
2022/08/04 01:34:29;;;;;;;3.83;3.63;;;24.10;75.50;;;;;;10446543;28;20190;-81
2022/08/04 01:39:41;;;;;;;4.10;3.90;;;24.10;76.00;;;;;;10443254;28;20289;-80
2022/08/04 01:44:48;;;;;;;4.23;3.93;;;24.10;75.10;;;;;;10424398;28;20213;-81
2022/08/04 01:49:51;;;;;;;4.37;4.17;;;24.10;75.50;;;;;;10448035;28;20213;-81
2022/08/04 01:54:55;;;;;;;4.10;3.90;;;24.00;75.50;;;;;;10441578;28;20220;-81
2022/08/04 01:59:59;;;;;;;4.00;3.73;;;24.00;75.80;;;;;;10439635;28;20210;-80
2022/08/04 02:05:02;;;;;;;4.30;4.10;;;24.00;76.40;;;;;;10411169;28;20225;-80
2022/08/04 02:10:06;;;;;;;4.07;3.87;;;23.90;76.20;;;;;;10446424;28;20254;-80
2022/08/04 02:15:17;;;;;;;4.30;4.10;;;23.90;76.70;;;;;;10442687;28;20257;-81
2022/08/04 02:20:24;;;;;;;4.47;4.27;;;23.90;76.60;;;;;;10431117;28;20221;-81
2022/08/04 02:25:28;;;;;;;4.90;4.60;;;23.90;76.90;;;;;;10432123;28;20721;-81
2022/08/04 02:30:40;;;;;;;4.20;4.00;;;23.80;77.80;;;;;;10445532;28;20213;-80
2022/08/04 02:35:45;;;;;;;4.40;4.20;;;23.80;77.30;;;;;;10438388;28;20197;-81
2022/08/04 02:40:48;;;;;;;4.60;4.30;;;23.70;77.80;;;;;;10424294;28;20296;-81
2022/08/04 02:45:56;;;;;;;4.30;4.10;;;23.70;77.50;;;;;;10455444;28;20217;-81
2022/08/04 02:51:00;;;;;;;4.50;4.20;;;23.70;77.60;;;;;;10460433;28;20311;-80
2022/08/04 02:56:08;;;;;;;4.67;4.27;;;23.60;78.60;;;;;;10455128;28;20250;-80
2022/08/04 03:01:12;;;;;;;5.43;4.43;;;23.60;78.40;;;;;;10424852;28;20270;-80
2022/08/04 03:06:44;;;;;;;5.23;4.50;;;23.50;79.30;;;;;;10451309;28;20227;-80
2022/08/04 03:12:05;;;;;;;4.20;4.00;;;23.50;79.20;;;;;;10464500;28;20211;-80
2022/08/04 03:17:44;;;;;;;4.60;4.40;;;23.40;79.20;;;;;;10455706;28;20217;-80
2022/08/04 03:23:07;;;;;;;5.17;4.87;;;23.40;80.20;;;;;;10444071;28;20221;-80
2022/08/04 03:28:35;;;;;;;4.80;4.60;;;23.40;79.30;;;;;;10433971;28;20229;-80
2022/08/04 03:33:51;;;;;;;5.47;5.00;;;23.40;79.20;;;;;;10451304;28;20197;-81
2022/08/04 03:39:35;;;;;;;4.57;4.37;;;23.30;78.90;;;;;;10446181;28;20244;-81
2022/08/04 03:45:04;;;;;;;4.47;4.27;;;23.30;78.60;;;;;;10432075;28;20212;-80
2022/08/04 03:50:30;;;;;;;4.00;3.80;;;23.20;78.90;;;;;;10434928;28;20216;-80
2022/08/04 03:56:17;;;;;;;4.87;4.67;;;23.20;79.00;;;;;;10471483;28;20902;-80
2022/08/04 04:01:43;;;;;;;4.83;4.63;;;23.20;78.70;;;;;;10423474;28;20231;-80
2022/08/04 04:07:22;;;;;;;5.20;4.90;;;23.20;78.50;;;;;;10466985;28;20723;-80
2022/08/04 04:12:51;;;;;;;5.10;4.90;;;23.20;78.90;;;;;;10443335;28;20193;-80
2022/08/04 04:18:24;;;;;;;5.20;4.93;;;23.20;79.20;;;;;;10439072;28;20293;-78
2022/08/04 04:23:36;;;;;;;5.30;4.83;;;23.10;78.90;;;;;;10442194;28;20212;-79
2022/08/04 04:28:58;;;;;;;4.37;4.17;;;23.10;79.10;;;;;;10463299;28;20272;-79
2022/08/04 04:34:13;;;;;;;4.60;4.40;;;23.10;79.60;;;;;;10455772;28;20205;-79
2022/08/04 04:39:24;;;;;;;5.40;5.10;;;23.10;78.70;;;;;;10455651;28;20224;-81
2022/08/04 04:44:53;;;;;;;5.80;4.80;;;23.10;78.60;;;;;;10435028;28;20680;-79
2022/08/04 04:50:08;;;;;;;4.93;4.47;;;23.10;79.00;;;;;;10445683;28;20221;-79
2022/08/04 04:55:17;;;;;;;5.17;4.87;;;23.10;79.20;;;;;;10435506;28;20185;-83
2022/08/04 05:00:20;;;;;;;4.73;4.53;;;23.10;79.30;;;;;;10447975;28;20287;-78
2022/08/04 05:05:37;;;;;;;4.53;4.33;;;23.10;80.10;;;;;;10421930;28;20712;-78
2022/08/04 05:10:56;;;;;;;5.53;5.00;;;23.10;80.00;;;;;;10414481;28;20229;-78
2022/08/04 05:16:05;;;;;;;4.70;4.50;;;23.20;80.40;;;;;;10433431;28;20675;-79
2022/08/04 05:21:27;;;;;;;4.57;4.37;;;23.20;79.50;;;;;;10442710;28;20225;-79
2022/08/04 05:26:33;;;;;;;5.00;4.80;;;23.20;80.30;;;;;;10431542;28;20698;-79
2022/08/04 05:31:39;;;;;;;5.10;4.80;;;23.20;79.90;;;;;;10446763;28;20229;-80
2022/08/04 05:36:47;;;;;;;5.40;5.10;;;23.30;80.60;;;;;;10441633;28;20217;-79
2022/08/04 05:41:50;;;;;;;5.17;4.77;;;23.30;80.40;;;;;;10440088;28;20208;-80
2022/08/04 05:46:55;;;;;;;5.40;5.10;;;23.30;80.70;;;;;;10454592;28;20225;-78
2022/08/04 05:52:00;;;;;;;5.50;5.00;;;23.40;80.30;;;;;;10448048;28;20288;-80
2022/08/04 05:57:06;;;;;;;5.17;4.87;;;23.40;80.40;;;;;;10424271;28;20598;-79
2022/08/04 06:02:10;;;;;;;5.63;5.30;;;23.50;80.00;;;;;;10452611;28;20368;-79
2022/08/04 06:07:13;;;;;;;5.80;5.40;;;23.50;79.90;;;;;;10456104;28;20762;-79
2022/08/04 06:12:20;;;;;;;5.57;5.17;;;23.60;81.00;;;;;;10457646;28;20240;-78
2022/08/04 06:17:29;;;;;;;5.80;5.40;;;23.60;81.20;;;;;;10455984;28;20720;-78
2022/08/04 06:22:34;;;;;;;5.43;5.07;;;23.70;79.60;;;;;;10447228;28;20209;-81
2022/08/04 06:27:37;;;;;;;5.30;5.00;;;23.80;80.70;;;;;;10466210;28;20221;-81
2022/08/04 06:32:46;;;;;;;6.47;4.90;;;23.80;82.50;;;;;;10446418;28;20250;-81
2022/08/04 06:37:54;;;;;;;6.13;5.83;;;23.90;81.50;;;;;;10454986;28;20216;-80
2022/08/04 06:42:57;;;;;;;5.03;4.80;;;24.10;81.80;;;;;;10427301;28;20208;-80
2022/08/04 06:48:01;;;;;;;6.00;5.60;;;24.30;81.60;;;;;;10445973;28;20336;-81
2022/08/04 06:53:04;;;;;;;65.03;48.33;;;24.40;81.40;;;;;;10454513;28;20204;-80
2022/08/04 06:58:08;;;;;;;33.60;27.57;;;24.40;80.20;;;;;;10447804;28;20217;-79
2022/08/04 07:03:11;;;;;;;25.07;21.63;;;24.60;80.60;;;;;;10438089;28;20228;-79
2022/08/04 07:08:15;;;;;;;7.30;6.60;;;24.70;80.00;;;;;;10457011;28;20717;-79
2022/08/04 07:13:18;;;;;;;6.03;5.60;;;24.80;81.10;;;;;;10434926;28;20193;-80
2022/08/04 07:18:21;;;;;;;4.87;4.47;;;24.90;80.50;;;;;;10427696;28;20251;-80
2022/08/04 07:23:26;;;;;;;6.70;6.13;;;25.10;81.20;;;;;;10462305;28;20201;-80
2022/08/04 07:28:29;;;;;;;5.40;5.00;;;25.50;80.60;;;;;;10478139;28;20545;-80
2022/08/04 07:33:32;;;;;;;6.10;5.80;;;25.80;79.30;;;;;;10469690;28;20232;-80
2022/08/04 07:38:35;;;;;;;13.03;11.93;;;26.20;79.30;;;;;;10473261;28;20953;-80
2022/08/04 07:43:38;;;;;;;12.83;9.60;;;26.70;78.60;;;;;;10472015;28;20197;-80
2022/08/04 07:48:40;;;;;;;5.90;5.37;;;27.10;77.40;;;;;;10468710;28;20247;-80
2022/08/04 07:53:45;;;;;;;6.83;6.17;;;27.50;76.10;;;;;;10469159;28;20197;-80
2022/08/04 07:58:47;;;;;;;6.53;6.13;;;27.90;73.00;;;;;;10450835;28;20224;-80
2022/08/04 08:03:50;;;;;;;6.13;5.73;;;28.30;71.30;;;;;;10445708;28;20233;-80
2022/08/04 08:08:54;;;;;;;7.33;6.00;;;28.80;72.00;;;;;;10473208;28;20724;-80
2022/08/04 08:13:56;;;;;;;5.33;5.07;;;29.20;67.50;;;;;;10472979;28;20670;-80
2022/08/04 08:18:58;;;;;;;3.30;3.00;;;29.70;67.60;;;;;;10468244;28;20236;-80
2022/08/04 08:24:02;;;;;;;6.17;5.83;;;30.20;66.70;;;;;;10460865;28;20289;-80
2022/08/04 08:29:04;;;;;;;5.43;5.23;;;30.70;65.70;;;;;;10446262;28;20653;-80
2022/08/04 08:34:06;;;;;;;5.80;5.47;;;31.20;64.10;;;;;;10446098;28;20201;-80
2022/08/04 08:39:16;;;;;;;6.40;6.00;;;31.60;62.30;;;;;;10467645;28;20669;-80
2022/08/04 08:44:42;;;;;;;6.20;5.13;;;32.10;62.10;;;;;;10470431;28;20208;-80
2022/08/04 08:50:10;;;;;;;4.80;4.50;;;32.50;61.50;;;;;;10475782;28;20221;-80
2022/08/04 08:55:32;;;;;;;6.13;5.83;;;32.80;61.30;;;;;;10450958;28;20576;-81
2022/08/04 09:00:45;;;;;;;6.73;5.70;;;33.10;60.50;;;;;;10481080;28;20304;-81
2022/08/04 09:06:24;;;;;;;6.20;5.80;;;33.20;59.60;;;;;;10467283;28;20220;-81
2022/08/04 09:11:36;;;;;;;5.90;5.50;;;33.40;58.00;;;;;;10466357;28;20201;-81
2022/08/04 09:16:45;;;;;;;6.10;5.20;;;33.20;60.30;;;;;;10464652;28;20213;-80
2022/08/04 09:21:54;;;;;;;5.40;5.20;;;33.00;59.50;;;;;;10463880;28;20211;-80
2022/08/04 09:27:00;;;;;;;6.97;6.23;;;32.90;60.00;;;;;;10461168;28;20312;-80
2022/08/04 09:32:10;;;;;;;6.20;5.73;;;32.90;60.10;;;;;;10443074;28;20534;-84
2022/08/04 09:37:21;;;;;;;6.20;5.80;;;33.00;58.90;;;;;;10448089;28;20212;-83
2022/08/04 09:42:34;;;;;;;4.57;4.27;;;33.20;59.60;;;;;;10440042;28;20205;-80
2022/08/04 09:47:46;;;;;;;5.13;4.93;;;33.60;58.10;;;;;;10464949;28;20654;-81
2022/08/04 09:52:56;;;;;;;6.00;5.60;;;34.00;58.40;;;;;;10446775;28;20661;-81
2022/08/04 09:58:07;;;;;;;4.60;4.30;;;34.40;57.00;;;;;;10423244;28;20217;-81
2022/08/04 10:03:12;;;;;;;5.93;5.63;;;34.70;55.10;;;;;;10413001;28;20193;-81
2022/08/04 10:08:28;;;;;;;8.50;4.07;;;35.10;56.30;;;;;;10443290;28;20672;-81
2022/08/04 10:13:47;;;;;;;6.33;6.03;;;35.50;54.00;;;;;;10439614;28;20203;-80
2022/08/04 10:19:01;;;;;;;4.80;4.60;;;35.90;53.40;;;;;;10445327;28;20231;-80
2022/08/04 10:24:30;;;;;;;7.17;6.60;;;36.00;51.90;;;;;;10439720;28;20214;-80
2022/08/04 10:29:42;;;;;;;3.60;3.33;;;35.90;51.10;;;;;;10445206;28;20264;-80
2022/08/04 10:35:02;;;;;;;6.67;6.17;;;35.30;52.70;;;;;;10411750;28;20279;-80
2022/08/04 10:45:37;;;;;;;6.43;6.07;;;34.00;54.00;;;;;;10433461;28;20564;-80
2022/08/04 10:50:47;;;;;;;6.90;6.30;;;33.50;53.60;;;;;;10450013;28;20216;-81
2022/08/04 10:55:57;;;;;;;6.67;6.37;;;33.10;54.00;;;;;;10413161;28;20204;-81
2022/08/04 11:01:05;;;;;;;6.60;6.10;;;32.80;53.00;;;;;;10455229;28;20259;-81
2022/08/04 11:06:08;;;;;;;6.30;6.00;;;32.60;54.00;;;;;;10448852;28;20303;-81
2022/08/04 11:11:14;;;;;;;5.67;5.33;;;32.30;53.20;;;;;;10457362;28;20282;-81
2022/08/04 11:16:24;;;;;;;6.40;5.90;;;32.20;52.70;;;;;;10457692;28;20331;-81
2022/08/04 11:21:31;;;;;;;5.90;5.60;;;32.10;54.20;;;;;;10458167;28;20201;-81
2022/08/04 11:26:43;;;;;;;6.20;5.80;;;32.10;53.20;;;;;;10458583;28;20351;-81
2022/08/04 11:31:49;;;;;;;7.03;6.60;;;32.00;55.10;;;;;;10443862;28;20201;-81
2022/08/04 11:36:59;;;;;;;7.67;7.03;;;31.80;55.70;;;;;;10458839;28;20217;-82
2022/08/04 11:42:07;;;;;;;5.60;5.30;;;31.60;56.40;;;;;;10440756;28;20229;-81
2022/08/04 11:47:22;;;;;;;5.93;5.63;;;31.50;54.80;;;;;;10454809;28;20263;-83
2022/08/04 11:52:26;;;;;;;5.40;5.10;;;31.50;53.50;;;;;;10448089;28;20197;-83
2022/08/04 11:57:29;;;;;;;7.23;6.73;;;31.60;54.00;;;;;;10466668;28;20209;-82
2022/08/04 12:03:04;;;;;;;5.83;5.53;;;31.60;57.00;;;;;;10445586;28;20193;-83
2022/08/04 12:08:26;;;;;;;7.20;6.53;;;31.50;54.40;;;;;;10460017;28;20634;-80
2022/08/04 12:13:34;;;;;;;5.60;5.20;;;31.60;55.70;;;;;;10461137;28;20196;-82
2022/08/04 12:18:40;;;;;;;6.97;6.57;;;31.60;56.30;;;;;;10450335;28;20258;-81
2022/08/04 12:23:46;;;;;;;5.87;5.57;;;31.60;54.10;;;;;;10437665;28;20283;-82
2022/08/04 12:28:51;;;;;;;4.33;4.10;;;31.80;54.50;;;;;;10454850;28;20303;-80
2022/08/04 12:33:58;;;;;;;5.73;5.43;;;32.00;52.00;;;;;;10467476;28;20254;-82
2022/08/04 12:39:06;;;;;;;5.20;4.47;;;32.20;53.20;;;;;;10450503;28;20225;-82
2022/08/04 12:44:12;;;;;;;5.60;5.20;;;32.20;53.60;;;;;;10453156;28;20779;-83
2022/08/04 12:49:15;;;;;;;5.70;5.10;;;32.20;53.40;;;;;;10472471;28;20292;-82
2022/08/04 12:54:25;;;;;;;6.47;6.17;;;32.10;54.70;;;;;;10467841;28;20193;-82
2022/08/04 12:59:27;;;;;;;4.70;4.40;;;31.90;53.50;;;;;;10452017;28;20243;-80
2022/08/04 13:04:30;;;;;;;5.50;5.10;;;31.80;54.40;;;;;;10468211;28;20193;-80
2022/08/04 13:09:37;;;;;;;5.60;5.30;;;31.70;53.80;;;;;;10505517;22;20220;-80
2022/08/04 13:14:43;;;;;;;6.83;6.33;;;31.70;54.50;;;;;;10530224;28;20207;-79
2022/08/04 13:19:48;;;;;;;4.97;4.60;;;31.70;55.70;;;;;;10487187;28;20236;-80
2022/08/04 13:24:53;;;;;;;6.13;5.73;;;31.60;55.20;;;;;;10502258;28;20200;-80
2022/08/04 13:29:57;;;;;;;6.40;6.10;;;31.50;53.90;;;;;;10500044;28;20244;-81
2022/08/04 13:35:02;;;;;;;5.57;5.27;;;31.50;53.70;;;;;;10501608;28;20232;-80
2022/08/04 13:40:11;;;;;;;6.23;5.90;;;31.40;57.20;;;;;;10464480;28;20241;-81
2022/08/04 13:45:14;;;;;;;6.80;6.30;;;31.20;56.20;;;;;;10482684;28;20201;-81
2022/08/04 13:50:22;;;;;;;6.37;6.07;;;31.20;55.00;;;;;;10502717;28;20295;-81
2022/08/04 13:55:29;;;;;;;6.03;5.70;;;31.20;53.00;;;;;;10485448;28;20220;-82
2022/08/04 14:00:43;;;;;;;6.33;5.93;;;31.50;55.60;;;;;;10485871;28;20255;-82
2022/08/04 14:05:45;;;;;;;6.87;6.27;;;31.70;56.00;;;;;;10498499;28;20216;-81
2022/08/04 14:10:56;;;;;;;4.43;4.23;;;31.90;53.80;;;;;;10499075;28;20224;-80
2022/08/04 14:15:58;;;;;;;6.37;6.07;;;32.00;54.30;;;;;;10479966;28;20268;-81
2022/08/04 14:21:08;;;;;;;6.50;6.17;;;32.00;54.20;;;;;;10499006;28;20228;-81
2022/08/04 14:26:24;;;;;;;6.03;5.63;;;32.00;54.00;;;;;;10460473;28;20213;-82
2022/08/04 14:31:27;;;;;;;5.50;5.20;;;32.00;53.30;;;;;;10471539;28;20200;-80
2022/08/04 14:36:39;;;;;;;4.53;4.33;;;32.00;55.50;;;;;;10478100;28;20561;-82
2022/08/04 14:41:49;;;;;;;6.13;5.73;;;31.90;57.10;;;;;;10478962;28;20267;-82
2022/08/04 14:46:52;;;;;;;6.40;5.80;;;31.70;57.20;;;;;;10481547;28;20229;-81
2022/08/04 14:51:57;;;;;;;5.70;5.30;;;31.70;53.80;;;;;;10494822;28;20232;-80
2022/08/04 14:57:03;;;;;;;6.43;6.13;;;31.80;54.30;;;;;;10463494;28;20282;-81
2022/08/04 15:02:06;;;;;;;5.67;5.20;;;31.90;55.20;;;;;;10480956;28;20211;-82
2022/08/04 15:07:09;;;;;;;5.53;5.20;;;32.00;53.80;;;;;;10481821;28;20710;-80
2022/08/04 15:12:12;;;;;;;5.77;5.37;;;32.10;53.90;;;;;;10484493;28;20222;-81
2022/08/04 15:17:14;;;;;;;6.00;5.70;;;32.10;53.50;;;;;;10496748;28;20232;-82
2022/08/04 15:22:17;;;;;;;4.10;3.90;;;32.10;53.30;;;;;;10500508;28;20196;-82
2022/08/04 15:27:24;;;;;;;4.40;4.10;;;32.20;54.80;;;;;;10502428;28;20589;-82
2022/08/04 15:32:28;;;;;;;5.13;4.70;;;32.20;54.50;;;;;;10468720;28;20209;-82
2022/08/04 15:37:38;;;;;;;5.93;5.50;;;32.10;55.20;;;;;;10501250;28;20239;-82
2022/08/04 15:42:47;;;;;;;5.00;4.70;;;32.10;51.40;;;;;;10501932;28;20214;-82
2022/08/04 15:48:26;;;;;;;5.47;5.23;;;32.10;53.30;;;;;;10480624;28;20229;-81
2022/08/04 15:53:30;;;;;;;5.80;5.40;;;32.10;53.10;;;;;;10505303;28;20196;-82
2022/08/04 15:58:49;;;;;;;5.10;4.90;;;32.00;53.40;;;;;;10482137;28;20221;-82
2022/08/04 16:03:52;;;;;;;6.47;6.17;;;32.10;52.00;;;;;;10501590;28;20223;-82
2022/08/04 16:08:58;;;;;;;5.40;5.00;;;32.00;54.30;;;;;;10512339;28;20235;-81
2022/08/04 16:14:11;;;;;;;5.33;5.03;;;32.00;52.00;;;;;;10493610;28;20204;-81
2022/08/04 16:19:25;;;;;;;5.60;5.20;;;32.00;54.20;;;;;;10492537;28;20235;-78
2022/08/04 16:24:30;;;;;;;4.63;4.33;;;31.90;53.70;;;;;;10490884;28;20275;-81
2022/08/04 16:29:38;;;;;;;5.57;5.17;;;31.80;55.70;;;;;;10489314;28;20712;-80
2022/08/04 16:34:42;;;;;;;5.53;5.10;;;31.60;52.60;;;;;;10498832;28;20655;-80
2022/08/04 16:39:45;;;;;;;5.17;4.77;;;31.60;52.40;;;;;;10496601;28;20213;-80
2022/08/04 16:45:00;;;;;;;4.50;4.30;;;31.50;55.70;;;;;;10505484;28;20223;-80
2022/08/04 16:50:02;;;;;;;5.60;5.23;;;31.40;53.30;;;;;;10488970;28;20228;-81
2022/08/04 16:55:06;;;;;;;5.97;5.57;;;31.50;54.70;;;;;;10500599;28;20660;-81
2022/08/04 17:00:11;;;;;;;5.13;4.80;;;31.40;57.60;;;;;;10504816;28;20236;-80
2022/08/04 17:05:21;;;;;;;4.17;3.87;;;31.20;58.20;;;;;;10478805;28;20230;-80
2022/08/04 17:10:32;;;;;;;4.77;4.47;;;31.00;56.30;;;;;;10500080;28;20304;-79
2022/08/04 17:15:36;;;;;;;5.70;5.40;;;30.90;57.10;;;;;;10507188;28;20196;-79
2022/08/04 17:20:41;;;;;;;6.20;5.70;;;30.80;56.80;;;;;;10482330;28;20281;-81
2022/08/04 17:25:51;;;;;;;6.20;5.90;;;30.80;55.50;;;;;;10487134;28;20266;-80
2022/08/04 17:30:57;;;;;;;12.30;10.20;;;30.90;55.80;;;;;;10484025;28;20255;-81
2022/08/04 17:36:01;;;;;;;6.60;6.27;;;31.00;57.10;;;;;;10501858;28;20250;-81
2022/08/04 17:41:06;;;;;;;6.47;5.97;;;31.10;57.10;;;;;;10484376;28;20227;-81
2022/08/04 17:46:35;;;;;;;6.40;6.00;;;31.10;57.70;;;;;;10485813;28;20203;-82
2022/08/04 17:51:41;;;;;;;5.70;5.40;;;31.10;57.70;;;;;;10501274;28;20590;-81
2022/08/04 17:56:45;;;;;;;4.90;4.50;;;31.10;58.00;;;;;;10507113;28;20217;-82
2022/08/04 18:01:58;;;;;;;5.10;4.60;;;31.10;58.10;;;;;;10488688;28;20200;-82
2022/08/04 18:07:03;;;;;;;5.60;5.20;;;31.00;58.30;;;;;;10497260;28;20228;-82
2022/08/04 18:12:07;;;;;;;4.93;4.63;;;30.90;58.80;;;;;;10499480;28;20203;-82
2022/08/04 18:17:12;;;;;;;3.90;3.70;;;30.80;58.80;;;;;;10487241;28;20221;-81
2022/08/04 18:22:14;;;;;;;5.30;5.00;;;30.70;59.10;;;;;;10471226;28;20676;-82
2022/08/04 18:27:17;;;;;;;3.83;3.53;;;30.60;58.60;;;;;;10488278;28;20287;-80
2022/08/04 18:32:22;;;;;;;4.60;4.40;;;30.50;59.40;;;;;;10500850;28;20208;-81
2022/08/04 18:37:25;;;;;;;5.53;5.23;;;30.40;59.20;;;;;;10497603;28;20247;-81
2022/08/04 18:42:27;;;;;;;5.37;4.97;;;30.30;59.60;;;;;;10504305;28;20687;-81
2022/08/04 18:47:31;;;;;;;5.30;5.00;;;30.20;59.70;;;;;;10488349;28;20270;-82
2022/08/04 18:52:34;;;;;;;5.33;5.00;;;30.00;60.00;;;;;;10505097;28;20200;-82
2022/08/04 18:57:36;;;;;;;5.60;5.30;;;29.90;60.00;;;;;;10481480;28;20220;-81
2022/08/04 19:02:39;;;;;;;4.57;4.20;;;29.80;60.70;;;;;;10502143;28;20220;-80
2022/08/04 19:07:42;;;;;;;5.20;4.90;;;29.60;60.10;;;;;;10502517;22;20227;-81
2022/08/04 19:12:44;;;;;;;5.67;5.30;;;29.50;60.30;;;;;;10538256;28;20199;-81
2022/08/04 19:17:47;;;;;;;4.70;4.50;;;29.40;60.60;;;;;;10535745;28;20212;-81
2022/08/04 19:22:52;;;;;;;5.80;5.40;;;29.30;62.70;;;;;;10530791;28;20206;-83
2022/08/04 19:27:55;;;;;;;5.20;4.90;;;29.20;61.90;;;;;;10501353;28;20220;-81
2022/08/04 19:32:58;;;;;;;4.97;4.60;;;29.10;62.00;;;;;;10522209;28;20207;-81
2022/08/04 19:38:00;;;;;;;5.33;4.93;;;29.10;62.30;;;;;;10536173;28;20223;-81
2022/08/04 19:43:03;;;;;;;5.73;5.10;;;29.00;62.80;;;;;;10503222;28;20486;-81
2022/08/04 19:48:06;;;;;;;5.93;5.30;;;29.00;63.00;;;;;;10508200;28;20248;-81
2022/08/04 19:53:09;;;;;;;5.37;4.97;;;28.90;63.50;;;;;;10490793;28;20628;-81
2022/08/04 19:58:11;;;;;;;6.00;5.50;;;28.80;63.20;;;;;;10513047;28;20324;-81
2022/08/04 20:03:15;;;;;;;4.67;4.37;;;28.70;64.00;;;;;;10529987;28;20601;-80
2022/08/04 20:08:17;;;;;;;5.00;4.80;;;28.60;64.40;;;;;;10468383;28;20224;-83
2022/08/04 20:13:19;;;;;;;5.33;4.90;;;28.60;63.80;;;;;;10509433;28;20278;-82
2022/08/04 20:18:23;;;;;;;5.50;5.20;;;28.60;63.60;;;;;;10517238;28;20219;-81
2022/08/04 20:23:25;;;;;;;5.30;4.90;;;28.50;63.50;;;;;;10513305;28;20231;-80
2022/08/04 20:28:27;;;;;;;4.97;4.50;;;28.50;63.50;;;;;;10496411;28;20294;-80
2022/08/04 20:33:31;;;;;;;5.13;4.83;;;28.50;63.40;;;;;;10501281;28;20203;-84
2022/08/04 20:38:33;;;;;;;5.43;5.00;;;28.40;63.40;;;;;;10511671;28;20220;-82
2022/08/04 20:43:35;;;;;;;4.80;4.60;;;28.30;64.10;;;;;;10491956;28;20210;-80
2022/08/04 20:48:38;;;;;;;5.40;5.10;;;28.30;64.20;;;;;;10511310;28;20311;-81
2022/08/04 20:53:40;;;;;;;5.67;4.90;;;28.30;64.10;;;;;;10470541;28;20291;-81
2022/08/04 20:58:45;;;;;;;5.27;4.87;;;28.20;64.30;;;;;;10522966;28;20212;-81
2022/08/04 21:09:08;;;;;;;6.13;5.67;;;28.10;66.10;;;;;;10512323;28;20227;-82
2022/08/04 21:14:10;;;;;;;5.30;4.90;;;28.00;65.50;;;;;;10503280;28;20245;-80
2022/08/04 21:19:13;;;;;;;5.40;5.10;;;28.00;65.80;;;;;;10514197;28;20223;-80
2022/08/04 21:24:15;;;;;;;5.80;5.40;;;27.90;67.60;;;;;;10498180;28;20199;-81
2022/08/04 21:29:18;;;;;;;5.80;5.47;;;27.90;67.50;;;;;;10528616;28;20331;-80
2022/08/04 21:34:21;;;;;;;5.20;4.80;;;27.80;67.80;;;;;;10510155;28;20203;-80
2022/08/04 21:39:24;;;;;;;5.40;5.10;;;27.80;67.20;;;;;;10526463;28;20289;-80
2022/08/04 21:44:26;;;;;;;5.40;5.00;;;27.70;67.20;;;;;;10521961;28;20253;-80
2022/08/04 21:49:29;;;;;;;5.13;4.80;;;27.70;67.80;;;;;;10528204;28;20766;-81
2022/08/04 21:54:31;;;;;;;5.77;5.43;;;27.60;68.70;;;;;;10521024;28;20226;-83
2022/08/04 21:59:34;;;;;;;5.30;5.00;;;27.60;69.80;;;;;;10478735;28;20303;-82
2022/08/04 22:04:37;;;;;;;5.30;5.00;;;27.50;69.30;;;;;;10522043;28;20661;-83
2022/08/04 22:09:39;;;;;;;6.27;5.77;;;27.50;70.00;;;;;;10493582;28;20243;-80
2022/08/04 22:14:41;;;;;;;5.10;4.80;;;27.50;71.00;;;;;;10511786;28;20211;-81
2022/08/04 22:19:45;;;;;;;5.37;5.07;;;27.40;71.10;;;;;;10528332;28;20212;-80
2022/08/04 22:24:47;;;;;;;5.43;5.03;;;27.40;72.50;;;;;;10507440;28;20198;-81
2022/08/04 22:29:49;;;;;;;5.80;5.40;;;27.30;72.50;;;;;;10520130;28;20224;-80
2022/08/04 22:34:53;;;;;;;5.40;5.10;;;27.30;72.10;;;;;;10531802;28;20240;-79
2022/08/04 22:39:55;;;;;;;5.80;5.50;;;27.20;72.40;;;;;;10527538;28;20310;-82
2022/08/04 22:44:57;;;;;;;5.70;5.20;;;27.20;73.40;;;;;;10480992;28;20554;-83
2022/08/04 22:50:01;;;;;;;5.70;5.30;;;27.20;72.80;;;;;;10495546;28;20318;-80
2022/08/04 22:55:04;;;;;;;5.73;5.43;;;27.10;73.60;;;;;;10499601;28;20207;-79
2022/08/04 23:00:08;;;;;;;6.23;5.83;;;27.10;74.00;;;;;;10515962;28;20293;-80
2022/08/04 23:05:11;;;;;;;5.87;5.47;;;27.10;73.50;;;;;;10508751;28;20204;-87
2022/08/04 23:10:13;;;;;;;5.67;5.27;;;27.00;74.00;;;;;;10511893;28;20223;-81
2022/08/04 23:15:15;;;;;;;6.33;5.80;;;26.90;74.00;;;;;;10536799;28;20582;-80
2022/08/04 23:20:19;;;;;;;6.00;5.60;;;26.90;73.30;;;;;;10504430;28;20247;-80
2022/08/04 23:25:21;;;;;;;6.00;5.60;;;26.90;73.60;;;;;;10522614;28;20204;-80
2022/08/04 23:30:24;;;;;;;6.20;5.80;;;26.80;74.90;;;;;;10512975;28;20311;-80
2022/08/04 23:35:28;;;;;;;5.67;5.17;;;26.80;75.40;;;;;;10509544;28;20306;-81
2022/08/04 23:40:30;;;;;;;5.73;5.33;;;26.70;75.00;;;;;;10494850;28;20212;-80
2022/08/04 23:45:32;;;;;;;6.37;5.73;;;26.70;74.80;;;;;;10509231;28;20196;-80
2022/08/04 23:50:35;;;;;;;5.27;4.97;;;26.70;75.60;;;;;;10503294;28;20266;-80
2022/08/04 23:55:37;;;;;;;5.77;5.47;;;26.70;74.80;;;;;;10498723;28;20536;-80
